createdAt,value
2018-03-08T00:02:00.500Z,5.50
2018-03-08T00:04:29.311Z,5.50
2018-03-08T00:06:57.360Z,5.50
2018-03-08T00:09:25.463Z,5.50
2018-03-08T00:11:54.420Z,5.60
2018-03-08T00:14:22.493Z,5.60
2018-03-08T00:16:50.548Z,5.60
2018-03-08T00:19:18.609Z,5.70
2018-03-08T00:21:46.644Z,5.70
2018-03-08T00:24:14.713Z,5.70
2018-03-08T00:26:43.525Z,5.70
2018-03-08T00:29:12.333Z,5.70
2018-03-08T00:31:40.356Z,5.70
2018-03-08T00:34:08.401Z,5.70
2018-03-08T00:36:36.444Z,5.70
2018-03-08T00:39:04.525Z,5.80
2018-03-08T00:41:32.560Z,5.80
2018-03-08T00:44:00.613Z,5.80
2018-03-08T00:46:29.397Z,5.70
2018-03-08T00:48:58.944Z,5.70
2018-03-08T00:51:27.736Z,5.70
2018-03-08T00:53:56.540Z,5.70
2018-03-08T00:56:25.339Z,5.70
2018-03-08T00:58:54.142Z,5.70
2018-03-08T01:01:22.952Z,5.80
2018-03-08T01:03:51.752Z,5.80
2018-03-08T01:06:20.576Z,5.70
2018-03-08T01:08:48.600Z,5.70
2018-03-08T01:11:16.653Z,5.70
2018-03-08T01:13:44.668Z,5.70
2018-03-08T01:16:12.733Z,5.70
2018-03-08T01:18:40.772Z,5.70
2018-03-08T01:21:09.572Z,5.60
2018-03-08T01:23:38.385Z,5.60
2018-03-08T01:26:06.416Z,5.50
2018-03-08T01:28:34.462Z,5.60
2018-03-08T01:31:02.485Z,5.60
2018-03-08T01:33:30.464Z,5.50
2018-03-08T01:35:58.461Z,5.50
2018-03-08T01:38:26.461Z,5.50
2018-03-08T01:40:55.220Z,5.50
2018-03-08T01:43:23.220Z,5.40
2018-03-08T01:45:51.208Z,5.40
2018-03-08T01:48:19.211Z,5.40
2018-03-08T01:50:47.225Z,5.40
2018-03-08T01:53:15.248Z,5.40
2018-03-08T01:55:43.239Z,5.40
2018-03-08T01:58:11.244Z,5.40
2018-03-08T02:00:39.996Z,5.40
2018-03-08T02:03:07.992Z,5.40
2018-03-08T02:05:35.988Z,5.40
2018-03-08T02:08:04.750Z,5.30
2018-03-08T02:10:32.744Z,5.30
2018-03-08T02:13:00.740Z,5.30
2018-03-08T02:15:28.725Z,5.30
2018-03-08T02:17:56.715Z,5.40
2018-03-08T02:20:25.484Z,5.30
2018-03-08T02:22:53.468Z,5.30
2018-03-08T02:25:21.472Z,5.30
2018-03-08T02:27:49.480Z,5.30
2018-03-08T02:30:18.237Z,5.20
2018-03-08T02:32:46.241Z,5.20
2018-03-08T02:35:14.236Z,5.20
2018-03-08T02:37:42.989Z,5.20
2018-03-08T02:40:10.989Z,5.20
2018-03-08T02:42:38.985Z,5.20
2018-03-08T02:45:06.981Z,5.10
2018-03-08T02:47:35.752Z,5.10
2018-03-08T02:50:03.747Z,5.10
2018-03-08T02:52:31.729Z,5.10
2018-03-08T02:54:59.723Z,5.10
2018-03-08T02:57:27.721Z,5.00
2018-03-08T02:59:56.472Z,4.80
2018-03-08T03:02:24.468Z,4.80
2018-03-08T03:04:52.482Z,4.80
2018-03-08T03:07:21.233Z,4.70
2018-03-08T03:09:49.288Z,4.70
2018-03-08T03:12:17.231Z,4.60
2018-03-08T03:14:45.216Z,4.60
2018-03-08T03:17:13.212Z,4.50
2018-03-08T03:19:41.974Z,4.50
2018-03-08T03:22:09.961Z,4.40
2018-03-08T03:24:37.955Z,4.40
2018-03-08T03:27:05.952Z,4.40
2018-03-08T03:29:34.971Z,4.30
2018-03-08T03:32:03.736Z,4.30
2018-03-08T03:34:31.740Z,4.30
2018-03-08T03:36:59.719Z,4.30
2018-03-08T03:39:27.717Z,4.40
2018-03-08T03:41:56.479Z,4.30
2018-03-08T03:44:24.465Z,4.30
2018-03-08T03:46:52.465Z,4.30
2018-03-08T03:49:20.456Z,4.30
2018-03-08T03:51:49.239Z,4.40
2018-03-08T03:54:17.259Z,4.30
2018-03-08T03:56:45.240Z,4.40
2018-03-08T03:59:14.009Z,2.50
2018-03-08T04:01:41.988Z,4.40
2018-03-08T04:04:10.011Z,4.50
2018-03-08T04:06:38.000Z,4.50
2018-03-08T04:09:05.993Z,4.50
2018-03-08T04:11:33.987Z,4.50
2018-03-08T04:14:01.983Z,4.50
2018-03-08T04:16:29.977Z,4.40
2018-03-08T04:18:57.976Z,4.30
2018-03-08T04:21:25.973Z,4.30
2018-03-08T04:23:53.954Z,4.30
2018-03-08T04:26:22.725Z,4.30
2018-03-08T04:28:50.724Z,4.20
2018-03-08T04:31:18.748Z,4.20
2018-03-08T04:33:46.757Z,4.10
2018-03-08T04:36:14.752Z,4.10
2018-03-08T04:38:42.737Z,4.10
2018-03-08T04:41:10.741Z,4.10
2018-03-08T04:43:38.735Z,4.00
2018-03-08T04:46:07.476Z,4.00
2018-03-08T04:48:35.481Z,3.90
2018-03-08T04:51:03.480Z,3.90
2018-03-08T04:53:31.456Z,3.90
2018-03-08T04:55:59.452Z,3.90
2018-03-08T04:58:27.452Z,3.80
2018-03-08T05:00:56.204Z,3.80
2018-03-08T05:03:24.207Z,3.70
2018-03-08T05:05:52.213Z,3.70
2018-03-08T05:08:20.972Z,3.70
2018-03-08T05:10:48.970Z,3.60
2018-03-08T05:13:16.972Z,3.70
2018-03-08T05:15:45.723Z,3.60
2018-03-08T05:18:13.716Z,3.50
2018-03-08T05:20:41.719Z,3.60
2018-03-08T05:23:09.695Z,3.50
2018-03-08T05:25:37.696Z,3.50
2018-03-08T05:28:05.688Z,3.50
2018-03-08T05:30:34.445Z,3.40
2018-03-08T05:33:02.449Z,3.30
2018-03-08T05:35:30.443Z,3.40
2018-03-08T05:37:58.464Z,3.40
2018-03-08T05:40:26.460Z,3.40
2018-03-08T05:42:54.463Z,3.40
2018-03-08T05:45:22.448Z,3.40
2018-03-08T05:47:50.452Z,3.40
2018-03-08T05:50:18.455Z,3.40
2018-03-08T05:52:46.793Z,3.40
2018-03-08T05:55:14.782Z,3.40
2018-03-08T05:57:42.777Z,3.40
2018-03-08T06:00:11.656Z,3.40
2018-03-08T06:02:39.660Z,3.40
2018-03-08T06:05:07.661Z,3.50
2018-03-08T06:07:35.644Z,3.40
2018-03-08T06:10:04.517Z,3.40
2018-03-08T06:12:32.511Z,3.40
2018-03-08T06:15:00.500Z,3.50
2018-03-08T06:17:28.496Z,3.50
2018-03-08T06:19:57.260Z,3.60
2018-03-08T06:22:25.252Z,3.50
2018-03-08T06:24:53.262Z,3.60
2018-03-08T06:27:21.261Z,3.60
2018-03-08T06:29:50.020Z,3.60
2018-03-08T06:32:18.012Z,3.60
2018-03-08T06:34:46.484Z,3.70
2018-03-08T06:37:14.473Z,3.80
2018-03-08T06:39:42.465Z,3.80
2018-03-08T06:42:10.468Z,3.80
2018-03-08T06:44:38.452Z,3.90
2018-03-08T06:47:07.212Z,3.90
2018-03-08T06:49:35.210Z,3.90
2018-03-08T06:52:03.251Z,5.90
2018-03-08T06:54:31.197Z,4.00
2018-03-08T06:56:59.203Z,4.00
2018-03-08T06:59:27.947Z,4.20
2018-03-08T07:01:55.942Z,4.10
2018-03-08T07:04:23.940Z,4.30
2018-03-08T07:06:51.932Z,4.30
2018-03-08T07:09:20.698Z,4.40
2018-03-08T07:11:48.706Z,4.40
2018-03-08T07:14:16.701Z,4.50
2018-03-08T07:16:44.692Z,4.50
2018-03-08T07:19:13.679Z,4.50
2018-03-08T07:21:41.661Z,4.50
2018-03-08T07:24:09.661Z,4.60
2018-03-08T07:26:38.425Z,4.70
2018-03-08T07:29:06.407Z,4.60
2018-03-08T07:31:34.412Z,4.80
2018-03-08T07:34:02.405Z,4.80
2018-03-08T07:36:31.155Z,5.00
2018-03-08T07:38:59.164Z,5.00
2018-03-08T07:41:28.663Z,5.30
2018-03-08T07:43:56.645Z,5.30
2018-03-08T07:46:24.644Z,5.50
2018-03-08T07:48:52.644Z,5.50
2018-03-08T07:51:20.640Z,5.50
2018-03-08T07:53:49.404Z,5.70
2018-03-08T07:56:17.412Z,5.60
2018-03-08T07:58:46.164Z,5.90
2018-03-08T08:01:14.160Z,5.90
2018-03-08T08:03:42.160Z,6.00
2018-03-08T08:06:21.984Z,6.10
2018-03-08T08:09:01.829Z,6.10
2018-03-08T08:11:29.825Z,6.20
2018-03-08T08:13:57.820Z,6.20
2018-03-08T08:16:25.813Z,6.30
2018-03-08T08:18:53.808Z,6.30
2018-03-08T08:21:21.805Z,6.30
2018-03-08T08:23:49.796Z,6.30
2018-03-08T08:26:17.809Z,6.40
2018-03-08T08:28:45.809Z,6.50
2018-03-08T08:31:13.845Z,6.40
2018-03-08T08:33:42.604Z,6.50
2018-03-08T08:36:10.607Z,6.40
2018-03-08T08:38:38.584Z,6.60
2018-03-08T08:41:06.579Z,6.60
2018-03-08T08:43:34.576Z,6.40
2018-03-08T08:46:03.322Z,6.20
2018-03-08T08:48:31.325Z,6.10
2018-03-08T08:50:59.328Z,6.10
2018-03-08T08:53:27.312Z,6.10
2018-03-08T08:55:55.309Z,6.20
2018-03-08T08:58:24.076Z,6.10
2018-03-08T09:00:52.059Z,6.10
2018-03-08T09:03:20.062Z,6.10
2018-03-08T09:05:48.069Z,6.10
2018-03-08T09:08:16.824Z,5.90
2018-03-08T09:10:44.824Z,5.90
2018-03-08T09:13:12.817Z,5.80
2018-03-08T09:15:41.569Z,5.80
2018-03-08T09:18:09.569Z,5.80
2018-03-08T09:20:37.560Z,5.80
2018-03-08T09:23:05.545Z,5.90
2018-03-08T09:25:33.540Z,6.00
2018-03-08T09:28:01.535Z,6.10
2018-03-08T09:30:30.289Z,6.30
2018-03-08T09:32:58.288Z,6.30
2018-03-08T09:35:26.275Z,6.40
2018-03-08T09:37:54.277Z,6.50
2018-03-08T09:40:23.764Z,6.60
2018-03-08T09:42:51.760Z,6.60
2018-03-08T09:45:19.809Z,6.70
2018-03-08T09:47:47.785Z,6.90
2018-03-08T09:50:16.497Z,7.10
2018-03-08T09:52:44.488Z,7.20
2018-03-08T09:55:12.475Z,7.20
2018-03-08T09:57:40.484Z,7.30
2018-03-08T10:00:08.468Z,7.40
2018-03-08T10:02:37.240Z,7.70
2018-03-08T10:05:05.237Z,7.70
2018-03-08T10:07:33.230Z,7.70
2018-03-08T10:10:01.224Z,7.80
2018-03-08T10:12:29.988Z,7.90
2018-03-08T10:14:57.972Z,7.80
2018-03-08T10:17:25.973Z,8.00
2018-03-08T10:19:53.969Z,7.90
2018-03-08T10:22:22.724Z,8.10
2018-03-08T10:24:50.733Z,8.10
2018-03-08T10:27:18.732Z,8.30
2018-03-08T10:29:49.454Z,8.70
2018-03-08T10:32:17.464Z,8.60
2018-03-08T10:34:46.269Z,8.80
2018-03-08T10:37:14.216Z,8.70
2018-03-08T10:39:42.232Z,8.80
2018-03-08T10:42:10.208Z,8.70
2018-03-08T10:44:38.960Z,8.60
2018-03-08T10:47:06.959Z,8.60
2018-03-08T10:49:34.964Z,8.50
2018-03-08T10:52:02.952Z,8.50
2018-03-08T10:54:30.957Z,8.40
2018-03-08T10:56:59.724Z,8.30
2018-03-08T10:59:27.703Z,8.30
2018-03-08T11:02:01.448Z,8.40
2018-03-08T11:04:36.112Z,8.70
2018-03-08T11:07:04.108Z,8.60
2018-03-08T11:09:32.112Z,9.00
2018-03-08T11:12:00.091Z,9.30
2018-03-08T11:14:28.102Z,9.50
2018-03-08T11:16:56.095Z,9.80
2018-03-08T11:19:24.860Z,10.80
2018-03-08T11:21:52.883Z,10.80
2018-03-08T11:24:21.692Z,11.40
2018-03-08T11:26:50.482Z,11.50
2018-03-08T11:29:19.388Z,11.90
2018-03-08T11:31:48.169Z,11.70
2018-03-08T11:34:16.209Z,11.70
2018-03-08T11:36:44.189Z,11.70
2018-03-08T11:39:12.193Z,11.50
2018-03-08T11:41:40.186Z,11.50
2018-03-08T11:44:08.961Z,11.20
2018-03-08T11:46:36.184Z,11.10
2018-03-08T11:49:04.937Z,10.80
2018-03-08T11:51:32.940Z,10.80
2018-03-08T11:54:00.951Z,10.70
2018-03-08T11:56:29.707Z,10.30
2018-03-08T11:58:57.717Z,10.20
2018-03-08T12:01:25.737Z,10.20
2018-03-08T12:03:54.468Z,10.30
2018-03-08T12:06:22.464Z,10.20
2018-03-08T12:08:50.464Z,10.20
2018-03-08T12:11:18.478Z,10.10
2018-03-08T12:13:46.504Z,10.00
2018-03-08T12:16:14.505Z,9.80
2018-03-08T12:18:42.488Z,9.70
2018-03-08T12:21:10.494Z,9.80
2018-03-08T12:23:39.265Z,10.30
2018-03-08T12:26:07.264Z,10.20
2018-03-08T12:28:35.268Z,10.70
2018-03-08T12:31:04.031Z,10.80
2018-03-08T12:33:32.028Z,10.80
2018-03-08T12:36:00.032Z,10.90
2018-03-08T12:38:28.805Z,10.60
2018-03-08T12:40:56.788Z,10.60
2018-03-08T12:43:24.800Z,10.80
2018-03-08T12:45:53.572Z,12.00
2018-03-08T12:48:21.587Z,12.00
2018-03-08T12:50:49.612Z,12.30
2018-03-08T12:53:17.642Z,12.70
2018-03-08T12:55:46.391Z,12.60
2018-03-08T12:58:14.397Z,12.50
2018-03-08T13:00:43.908Z,12.30
2018-03-08T13:03:11.909Z,12.30
2018-03-08T13:05:39.912Z,12.80
2018-03-08T13:08:08.680Z,14.10
2018-03-08T13:10:36.716Z,14.00
2018-03-08T13:13:04.677Z,13.90
2018-03-08T13:15:33.441Z,12.90
2018-03-08T13:18:01.432Z,12.80
2018-03-08T13:20:29.433Z,12.60
2018-03-08T13:22:57.429Z,12.40
2018-03-08T13:25:26.187Z,12.60
2018-03-08T13:27:54.188Z,12.60
2018-03-08T13:30:22.189Z,12.60
2018-03-08T13:32:50.968Z,12.50
2018-03-08T13:35:18.976Z,12.50
2018-03-08T13:37:47.757Z,12.20
2018-03-08T13:40:15.753Z,12.20
2018-03-08T13:42:44.524Z,12.00
2018-03-08T13:45:12.532Z,11.90
2018-03-08T13:47:41.289Z,11.60
2018-03-08T13:50:09.284Z,11.50
2018-03-08T13:52:37.293Z,11.50
2018-03-08T13:55:05.285Z,11.30
2018-03-08T13:57:34.054Z,11.50
2018-03-08T14:00:02.063Z,11.50
2018-03-08T14:02:30.044Z,12.30
2018-03-08T14:04:58.823Z,12.90
2018-03-08T14:07:26.819Z,12.80
2018-03-08T14:09:55.580Z,12.50
2018-03-08T14:12:23.580Z,12.50
2018-03-08T14:14:51.600Z,12.70
2018-03-08T14:17:20.356Z,12.70
2018-03-08T14:19:48.368Z,12.70
2018-03-08T14:22:16.458Z,12.60
2018-03-08T14:24:45.216Z,12.20
2018-03-08T14:27:13.227Z,12.10
2018-03-08T14:29:41.239Z,12.20
2018-03-08T14:32:09.996Z,13.50
2018-03-08T14:34:37.995Z,13.50
2018-03-08T14:37:06.004Z,13.60
2018-03-08T14:39:34.779Z,13.40
2018-03-08T14:42:02.784Z,13.30
2018-03-08T14:44:30.768Z,13.70
2018-03-08T14:46:59.520Z,13.70
2018-03-08T14:49:27.529Z,13.70
2018-03-08T14:51:57.037Z,13.90
2018-03-08T14:54:25.027Z,13.90
2018-03-08T14:56:53.041Z,14.10
2018-03-08T14:59:21.816Z,14.20
2018-03-08T15:01:49.804Z,14.10
2018-03-08T15:04:18.575Z,13.60
2018-03-08T15:06:46.589Z,13.60
2018-03-08T15:09:14.580Z,13.60
2018-03-08T15:11:43.429Z,13.50
2018-03-08T15:14:11.432Z,13.40
2018-03-08T15:16:39.425Z,13.30
2018-03-08T15:19:07.423Z,13.30
2018-03-08T15:21:36.187Z,13.00
2018-03-08T15:24:04.180Z,13.00
2018-03-08T15:26:32.185Z,12.90
2018-03-08T15:29:00.189Z,12.50
2018-03-08T15:31:28.946Z,12.10
2018-03-08T15:33:56.949Z,12.10
2018-03-08T15:36:24.958Z,12.60
2018-03-08T15:38:53.709Z,14.20
2018-03-08T15:41:21.716Z,14.10
2018-03-08T15:43:49.723Z,14.40
2018-03-08T15:46:17.712Z,14.20
2018-03-08T15:48:45.727Z,13.80
2018-03-08T15:51:13.724Z,13.40
2018-03-08T15:53:41.720Z,13.00
2018-03-08T15:56:09.727Z,12.80
2018-03-08T15:58:38.493Z,13.10
2018-03-08T16:01:06.487Z,13.10
2018-03-08T16:03:34.497Z,13.40
2018-03-08T16:06:03.260Z,13.20
2018-03-08T16:08:45.928Z,13.20
2018-03-08T16:11:13.927Z,13.00
2018-03-08T16:13:41.921Z,13.00
2018-03-08T16:16:09.919Z,12.70
2018-03-08T16:18:37.926Z,12.60
2018-03-08T16:21:05.912Z,12.20
2018-03-08T16:23:34.688Z,11.90
2018-03-08T16:26:02.697Z,11.80
2018-03-08T16:28:30.680Z,11.70
2018-03-08T16:30:58.688Z,11.50
2018-03-08T16:33:26.693Z,11.40
2018-03-08T16:35:54.785Z,11.00
2018-03-08T16:38:22.680Z,11.10
2018-03-08T16:40:50.704Z,10.90
2018-03-08T16:43:18.680Z,10.70
2018-03-08T16:45:46.688Z,10.50
2018-03-08T16:48:14.699Z,10.30
2018-03-08T16:50:42.684Z,10.20
2018-03-08T16:53:10.688Z,10.00
2018-03-08T16:55:38.684Z,9.90
2018-03-08T16:58:06.673Z,9.80
2018-03-08T17:00:34.670Z,9.70
2018-03-08T17:03:03.475Z,9.50
2018-03-08T17:05:31.433Z,9.40
2018-03-08T17:07:59.425Z,9.40
2018-03-08T17:10:27.436Z,9.30
2018-03-08T17:12:56.185Z,9.20
2018-03-08T17:15:24.188Z,9.10
2018-03-08T17:17:52.200Z,9.10
2018-03-08T17:20:20.928Z,9.00
2018-03-08T17:22:48.935Z,8.90
2018-03-08T17:25:16.945Z,8.90
2018-03-08T17:27:45.696Z,8.80
2018-03-08T17:30:13.702Z,8.70
2018-03-08T17:32:41.692Z,8.70
2018-03-08T17:35:11.180Z,8.50
2018-03-08T17:37:39.180Z,8.50
2018-03-08T17:40:07.192Z,8.50
2018-03-08T17:42:35.941Z,8.40
2018-03-08T17:45:03.944Z,8.30
2018-03-08T17:47:31.932Z,8.30
2018-03-08T17:49:59.927Z,8.20
2018-03-08T17:52:29.428Z,8.10
2018-03-08T17:54:57.436Z,8.10
2018-03-08T17:57:26.184Z,8.10
2018-03-08T17:59:54.205Z,8.00
2018-03-08T18:02:22.683Z,8.10
2018-03-08T18:04:50.668Z,8.10
2018-03-08T18:07:18.668Z,8.10
2018-03-08T18:09:46.676Z,8.10
2018-03-08T18:12:15.430Z,8.10
2018-03-08T18:14:43.423Z,8.00
2018-03-08T18:17:11.416Z,8.10
2018-03-08T18:19:39.399Z,8.00
2018-03-08T18:22:07.388Z,8.00
2018-03-08T18:24:35.411Z,8.00
2018-03-08T18:27:03.391Z,8.00
2018-03-08T18:29:31.392Z,7.90
2018-03-08T18:31:59.389Z,7.80
2018-03-08T18:34:27.385Z,7.80
2018-03-08T18:36:55.387Z,7.70
2018-03-08T18:39:25.384Z,7.70
2018-03-08T18:41:53.364Z,7.60
2018-03-08T18:44:21.360Z,7.60
2018-03-08T18:46:49.371Z,7.60
2018-03-08T18:49:18.116Z,7.60
2018-03-08T18:51:46.213Z,7.50
2018-03-08T18:54:14.236Z,7.60
2018-03-08T18:56:42.989Z,7.60
2018-03-08T18:59:10.987Z,7.50
2018-03-08T19:01:39.849Z,7.60
2018-03-08T19:04:07.780Z,7.50
2018-03-08T19:06:35.772Z,7.60
2018-03-08T19:09:03.769Z,7.50
2018-03-08T19:11:32.625Z,7.50
2018-03-08T19:14:00.624Z,7.50
2018-03-08T19:16:28.615Z,7.40
2018-03-08T19:18:56.602Z,7.40
2018-03-08T19:21:24.601Z,7.40
2018-03-08T19:23:53.369Z,7.30
2018-03-08T19:26:21.348Z,7.20
2018-03-08T19:28:49.352Z,7.30
2018-03-08T19:31:17.836Z,7.30
2018-03-08T19:33:45.825Z,7.20
2018-03-08T19:36:13.829Z,7.20
2018-03-08T19:38:42.593Z,7.10
2018-03-08T19:41:10.581Z,7.00
2018-03-08T19:43:38.572Z,7.00
2018-03-08T19:46:08.081Z,6.90
2018-03-08T19:48:36.448Z,6.90
2018-03-08T19:51:04.456Z,6.90
2018-03-08T19:53:32.449Z,6.90
2018-03-08T19:56:00.437Z,6.90
2018-03-08T19:58:28.437Z,6.90
2018-03-08T20:00:57.201Z,6.80
2018-03-08T20:03:25.189Z,6.70
2018-03-08T20:05:53.188Z,6.80
2018-03-08T20:08:21.196Z,6.70
2018-03-08T20:10:49.183Z,6.70
2018-03-08T20:13:17.198Z,6.70
2018-03-08T20:15:45.217Z,6.70
2018-03-08T20:18:13.972Z,6.70
2018-03-08T20:20:41.964Z,6.70
2018-03-08T20:23:09.963Z,6.80
2018-03-08T20:25:38.010Z,6.80
2018-03-08T20:28:06.744Z,6.80
2018-03-08T20:30:34.743Z,6.80
2018-03-08T20:33:02.728Z,6.90
2018-03-08T20:35:30.728Z,6.90
2018-03-08T20:37:59.487Z,6.80
2018-03-08T20:40:27.472Z,6.80
2018-03-08T20:42:55.480Z,6.80
2018-03-08T20:45:24.287Z,6.80
2018-03-08T20:47:52.277Z,6.70
2018-03-08T20:50:21.040Z,6.70
2018-03-08T20:52:49.067Z,6.70
2018-03-08T20:55:17.059Z,6.60
2018-03-08T20:57:45.061Z,6.60
2018-03-08T21:00:13.058Z,6.60
2018-03-08T21:02:41.041Z,6.60
2018-03-08T21:05:09.056Z,6.60
2018-03-08T21:07:37.857Z,6.60
2018-03-08T21:10:05.840Z,6.60
2018-03-08T21:12:34.643Z,6.70
2018-03-08T21:15:02.605Z,6.60
2018-03-08T21:17:30.588Z,6.70
2018-03-08T21:19:58.943Z,6.70
2018-03-08T21:22:26.917Z,6.80
2018-03-08T21:24:54.901Z,6.80
2018-03-08T21:27:22.916Z,6.90
2018-03-08T21:29:50.920Z,6.80
2018-03-08T21:32:18.955Z,6.90
2018-03-08T21:34:46.945Z,6.80
2018-03-08T21:37:14.940Z,6.90
2018-03-08T21:39:42.925Z,6.90
2018-03-08T21:42:10.935Z,6.90
2018-03-08T21:44:39.906Z,6.90
2018-03-08T21:47:07.892Z,6.90
2018-03-08T21:49:35.897Z,6.90
2018-03-08T21:52:03.888Z,6.80
2018-03-08T21:54:31.881Z,6.70
2018-03-08T21:57:00.644Z,6.70
2018-03-08T21:59:28.637Z,6.70
2018-03-08T22:01:56.628Z,6.90
2018-03-08T22:04:24.623Z,7.00
2018-03-08T22:06:53.392Z,6.90
2018-03-08T22:09:21.471Z,6.80
2018-03-08T22:11:49.445Z,6.90
2018-03-08T22:14:17.440Z,6.80
2018-03-08T22:16:45.433Z,6.80
2018-03-08T22:19:13.436Z,6.70
2018-03-08T22:21:41.437Z,6.50
2018-03-08T22:24:09.421Z,6.40
2018-03-08T22:26:37.432Z,6.30
2018-03-08T22:29:05.437Z,6.00
2018-03-08T22:31:33.422Z,5.90
2018-03-08T22:34:02.153Z,5.70
2018-03-08T22:36:30.153Z,5.70
2018-03-08T22:38:58.148Z,5.70
2018-03-08T22:41:26.143Z,5.60
2018-03-08T22:43:54.152Z,5.60
2018-03-08T22:46:22.140Z,5.50
2018-03-08T22:48:50.149Z,5.50
2018-03-08T22:51:18.912Z,5.30
2018-03-08T22:53:46.909Z,5.30
2018-03-08T22:56:14.917Z,5.10
2018-03-08T22:58:43.689Z,4.90
2018-03-08T23:04:03.405Z,4.70
2018-03-08T23:06:31.381Z,4.60
2018-03-08T23:08:59.380Z,4.60
2018-03-08T23:11:27.364Z,4.60
2018-03-08T23:13:55.364Z,4.40
2018-03-08T23:16:24.125Z,4.30
2018-03-08T23:18:52.122Z,4.30
2018-03-08T23:21:20.119Z,4.20
2018-03-08T23:23:48.113Z,4.10
2018-03-08T23:26:16.877Z,4.00
2018-03-08T23:28:44.874Z,3.90
2018-03-08T23:31:12.872Z,3.90
2018-03-08T23:33:40.867Z,3.80
2018-03-08T23:36:09.645Z,3.70
2018-03-08T23:38:37.641Z,3.70
2018-03-08T23:41:06.398Z,3.60
2018-03-08T23:43:34.397Z,3.50
2018-03-08T23:46:02.400Z,3.50
2018-03-08T23:48:30.383Z,3.40
2018-03-08T23:50:59.156Z,3.40
2018-03-08T23:53:27.649Z,3.30
2018-03-08T23:55:55.625Z,3.50
2018-03-08T23:58:23.623Z,3.40
